< < Back
Terminal Aerodrome Forecast


Current Version              Previous Versions:   1  2  3  4  5  6  7  8  9  

Terminal Aerodrome Forecast

695
FTUS42 KILM 011100 CCA
TAFILM
TAF COR
KILM 011141Z 0112/0212 00000KT 5SM BR SCT002
     FM011300 01007KT P6SM SCT250
     FM012000 12006KT P6SM SCT250=

Latest METAR

382
SAUS70 KWBC 020000 RRH
MTRILM
METAR KILM 012353Z 00000KT 10SM CLR 21/19 A2999 RMK AO2 SLP157 T02110194
10283 20211 53012


USA.gov is the U.S. government's official web portal to all federal, state and local government web resources and services.